Aérodrome :
LOGIN :

S'inscrire | Disclaimer

   EN    FR    IT 

 










Légende :    VFR   VFR Marginal   IFR   IFR Intensif   IFR Très Intensif
Visi : 
Plafond : 
>= 8 km
>= 3000ft
5 à 8 km
1000 à 3000 ft
1500m à 5 km
500 à 1000 ft
800 à 1500m
200 à 500 ft
< 800m
< 200 ft
Symboles :   Orages  Brouillard  Fortes neiges  Fortes précipitations  Vent > 20 kt
SIGMETs :   Divers  Orages  Givrage  Turbulence  Onde Orograph.  Cendres Volcan.






- Altitude de l'aérodrome : 124 ft
- Code IATA : NHT


EGWU - RAF Northolt

DERNIER METAR :
  • 272050Z 23003KT 9999 FEW018 SCT040 BKN180 05/04 Q0992 RMK BLU

METARs EXPIRÉS :
  • 271950Z 24006KT 9999 FEW020 BKN200 06/05 Q0993 TEMPO SCT020
  • 271921Z 22007KT 9999 FEW040 BKN200 06/05 Q0993 NOSIG RMK BLU BLU

TAF TAF EGWU
Valide du 27 à 21h jusqu'au 28 à 15h UTC


271955Z 2721/2815 22008KT 9999 FEW020
PROB30
TEMPO 2721/2723 SCT020
PROB40
TEMPO 2723/2802 4000 SHRA BKN012CB
TEMPO 2805/2815 26015G25KT



MET'MAP, la Météo Aéronautique d'un coup d'oeil ! - Copyright ORBIFLY Décembre 2007 - Disclaimer

ORBIFLY MET'MAP TEAM :

Programmation & Développement : Alexandra Zaïnal
Sur une idée originale de : Baudouin d'Aumeries
Assistance à la programmation : Marc-Olivier Méhu
Soutien technique & logistique : Manuel Goepfert

Contact : metmap@orbifly.com




SOURCES & CREDITS :

   NOAA